sensor_id;sensor_type;location;lat;lon;timestamp;temperature;humidity
7572;DHT22;3827;49.928;8.548;2023-08-07T00:00:37;13.10;99.90
7572;DHT22;3827;49.928;8.548;2023-08-07T00:03:04;13.10;99.90
7572;DHT22;3827;49.928;8.548;2023-08-07T00:05:30;13.00;99.90
7572;DHT22;3827;49.928;8.548;2023-08-07T00:07:57;13.00;99.90
7572;DHT22;3827;49.928;8.548;2023-08-07T00:10:25;13.00;99.90
7572;DHT22;3827;49.928;8.548;2023-08-07T00:12:52;13.00;99.90
7572;DHT22;3827;49.928;8.548;2023-08-07T00:15:19;13.00;99.90
7572;DHT22;3827;49.928;8.548;2023-08-07T00:17:46;12.90;99.90
7572;DHT22;3827;49.928;8.548;2023-08-07T00:20:12;13.00;99.90
7572;DHT22;3827;49.928;8.548;2023-08-07T00:22:39;12.90;99.90
7572;DHT22;3827;49.928;8.548;2023-08-07T00:25:06;12.90;99.90
7572;DHT22;3827;49.928;8.548;2023-08-07T00:27:35;12.80;99.90
7572;DHT22;3827;49.928;8.548;2023-08-07T00:30:01;12.70;99.90
7572;DHT22;3827;49.928;8.548;2023-08-07T00:32:28;12.80;99.90
7572;DHT22;3827;49.928;8.548;2023-08-07T00:34:55;12.90;99.90
7572;DHT22;3827;49.928;8.548;2023-08-07T00:37:22;12.80;99.90
7572;DHT22;3827;49.928;8.548;2023-08-07T00:39:48;12.80;99.90
7572;DHT22;3827;49.928;8.548;2023-08-07T00:42:15;12.70;99.90
7572;DHT22;3827;49.928;8.548;2023-08-07T00:44:43;12.70;99.90
7572;DHT22;3827;49.928;8.548;2023-08-07T00:47:10;12.70;99.90
7572;DHT22;3827;49.928;8.548;2023-08-07T00:49:37;12.60;99.90
7572;DHT22;3827;49.928;8.548;2023-08-07T00:52:05;12.60;99.90
7572;DHT22;3827;49.928;8.548;2023-08-07T00:54:32;12.60;99.90
7572;DHT22;3827;49.928;8.548;2023-08-07T00:57:03;13.50;99.90
7572;DHT22;3827;49.928;8.548;2023-08-07T00:59:31;12.70;99.90
7572;DHT22;3827;49.928;8.548;2023-08-07T01:02:00;12.90;99.90
7572;DHT22;3827;49.928;8.548;2023-08-07T01:04:27;12.70;99.90
7572;DHT22;3827;49.928;8.548;2023-08-07T01:06:54;12.80;99.90
7572;DHT22;3827;49.928;8.548;2023-08-07T01:09:21;12.80;99.90
7572;DHT22;3827;49.928;8.548;2023-08-07T01:11:51;12.80;99.90
7572;DHT22;3827;49.928;8.548;2023-08-07T01:14:24;12.80;99.90
7572;DHT22;3827;49.928;8.548;2023-08-07T01:17:02;13.30;99.90
7572;DHT22;3827;49.928;8.548;2023-08-07T01:19:34;12.90;99.90
7572;DHT22;3827;49.928;8.548;2023-08-07T01:22:06;12.90;99.90
7572;DHT22;3827;49.928;8.548;2023-08-07T01:24:33;13.00;99.90
7572;DHT22;3827;49.928;8.548;2023-08-07T01:27:07;13.00;99.90
7572;DHT22;3827;49.928;8.548;2023-08-07T01:29:40;13.00;99.90
7572;DHT22;3827;49.928;8.548;2023-08-07T01:32:11;13.00;99.90
7572;DHT22;3827;49.928;8.548;2023-08-07T01:34:41;13.10;99.90
7572;DHT22;3827;49.928;8.548;2023-08-07T01:37:10;13.00;99.90
7572;DHT22;3827;49.928;8.548;2023-08-07T01:39:39;13.00;99.90
7572;DHT22;3827;49.928;8.548;2023-08-07T01:42:07;13.00;99.90
7572;DHT22;3827;49.928;8.548;2023-08-07T01:44:36;13.00;99.90
7572;DHT22;3827;49.928;8.548;2023-08-07T01:47:03;13.10;99.90
7572;DHT22;3827;49.928;8.548;2023-08-07T01:49:30;13.10;99.90
7572;DHT22;3827;49.928;8.548;2023-08-07T01:51:57;13.00;99.90
7572;DHT22;3827;49.928;8.548;2023-08-07T01:54:25;13.00;99.90
7572;DHT22;3827;49.928;8.548;2023-08-07T01:56:51;13.00;99.90
7572;DHT22;3827;49.928;8.548;2023-08-07T01:59:18;13.10;99.90
7572;DHT22;3827;49.928;8.548;2023-08-07T02:01:45;13.00;99.90
7572;DHT22;3827;49.928;8.548;2023-08-07T02:04:12;13.00;99.90
7572;DHT22;3827;49.928;8.548;2023-08-07T02:06:38;13.00;99.90
7572;DHT22;3827;49.928;8.548;2023-08-07T02:09:05;13.00;99.90
7572;DHT22;3827;49.928;8.548;2023-08-07T02:11:33;13.20;99.90
7572;DHT22;3827;49.928;8.548;2023-08-07T02:14:00;13.00;99.90
7572;DHT22;3827;49.928;8.548;2023-08-07T02:16:27;13.00;99.90
7572;DHT22;3827;49.928;8.548;2023-08-07T02:18:53;13.60;99.90
7572;DHT22;3827;49.928;8.548;2023-08-07T02:21:20;13.10;99.90
7572;DHT22;3827;49.928;8.548;2023-08-07T02:23:47;13.10;99.90
7572;DHT22;3827;49.928;8.548;2023-08-07T02:26:13;13.20;99.90
7572;DHT22;3827;49.928;8.548;2023-08-07T02:28:41;13.10;99.90
7572;DHT22;3827;49.928;8.548;2023-08-07T02:31:08;13.10;99.90
7572;DHT22;3827;49.928;8.548;2023-08-07T02:33:35;13.10;99.90
7572;DHT22;3827;49.928;8.548;2023-08-07T02:36:02;13.10;99.90
7572;DHT22;3827;49.928;8.548;2023-08-07T02:38:29;13.10;99.90
7572;DHT22;3827;49.928;8.548;2023-08-07T02:40:55;13.10;99.90
7572;DHT22;3827;49.928;8.548;2023-08-07T02:43:22;13.10;99.90
7572;DHT22;3827;49.928;8.548;2023-08-07T02:45:50;13.10;99.90
7572;DHT22;3827;49.928;8.548;2023-08-07T02:48:17;13.20;99.90
7572;DHT22;3827;49.928;8.548;2023-08-07T02:50:44;13.10;99.90
7572;DHT22;3827;49.928;8.548;2023-08-07T02:53:11;13.20;99.90
7572;DHT22;3827;49.928;8.548;2023-08-07T02:55:38;13.10;99.90
7572;DHT22;3827;49.928;8.548;2023-08-07T02:58:05;13.10;99.90
7572;DHT22;3827;49.928;8.548;2023-08-07T03:00:31;13.10;99.90
7572;DHT22;3827;49.928;8.548;2023-08-07T03:03:02;13.10;99.90
7572;DHT22;3827;49.928;8.548;2023-08-07T03:05:29;13.10;99.90
7572;DHT22;3827;49.928;8.548;2023-08-07T03:07:55;13.10;99.90
7572;DHT22;3827;49.928;8.548;2023-08-07T03:10:22;13.10;99.90
7572;DHT22;3827;49.928;8.548;2023-08-07T03:12:49;13.10;99.90
7572;DHT22;3827;49.928;8.548;2023-08-07T03:15:16;13.10;99.90
7572;DHT22;3827;49.928;8.548;2023-08-07T03:17:42;13.10;99.90
7572;DHT22;3827;49.928;8.548;2023-08-07T03:20:11;13.20;99.90
7572;DHT22;3827;49.928;8.548;2023-08-07T03:22:38;13.20;99.90
7572;DHT22;3827;49.928;8.548;2023-08-07T03:25:06;13.20;99.90
7572;DHT22;3827;49.928;8.548;2023-08-07T03:27:32;13.10;99.90
7572;DHT22;3827;49.928;8.548;2023-08-07T03:29:59;13.10;99.90
7572;DHT22;3827;49.928;8.548;2023-08-07T03:32:26;13.10;99.90
7572;DHT22;3827;49.928;8.548;2023-08-07T03:34:52;13.10;99.90
7572;DHT22;3827;49.928;8.548;2023-08-07T03:37:20;13.20;99.90
7572;DHT22;3827;49.928;8.548;2023-08-07T03:39:47;14.00;99.90
7572;DHT22;3827;49.928;8.548;2023-08-07T03:42:14;13.20;99.90
7572;DHT22;3827;49.928;8.548;2023-08-07T03:44:41;13.20;99.90
7572;DHT22;3827;49.928;8.548;2023-08-07T03:47:08;13.10;99.90
7572;DHT22;3827;49.928;8.548;2023-08-07T03:49:34;13.10;99.90
7572;DHT22;3827;49.928;8.548;2023-08-07T03:52:01;13.10;99.90
7572;DHT22;3827;49.928;8.548;2023-08-07T03:54:29;13.10;99.90
7572;DHT22;3827;49.928;8.548;2023-08-07T03:56:56;13.20;99.90
7572;DHT22;3827;49.928;8.548;2023-08-07T03:59:23;13.20;99.90
7572;DHT22;3827;49.928;8.548;2023-08-07T04:01:50;13.10;99.90
7572;DHT22;3827;49.928;8.548;2023-08-07T04:04:16;13.00;99.90
7572;DHT22;3827;49.928;8.548;2023-08-07T04:06:43;13.20;99.90
7572;DHT22;3827;49.928;8.548;2023-08-07T04:09:16;13.20;99.90
7572;DHT22;3827;49.928;8.548;2023-08-07T04:11:44;13.20;99.90
7572;DHT22;3827;49.928;8.548;2023-08-07T04:14:11;13.20;99.90
7572;DHT22;3827;49.928;8.548;2023-08-07T04:16:38;13.20;99.90
7572;DHT22;3827;49.928;8.548;2023-08-07T04:19:05;13.10;99.90
7572;DHT22;3827;49.928;8.548;2023-08-07T04:21:32;13.20;99.90
7572;DHT22;3827;49.928;8.548;2023-08-07T04:23:59;13.20;99.90
7572;DHT22;3827;49.928;8.548;2023-08-07T04:26:35;13.20;99.90
7572;DHT22;3827;49.928;8.548;2023-08-07T04:29:04;13.20;99.90
7572;DHT22;3827;49.928;8.548;2023-08-07T04:31:30;14.10;99.90
7572;DHT22;3827;49.928;8.548;2023-08-07T04:33:58;13.20;99.90
7572;DHT22;3827;49.928;8.548;2023-08-07T04:36:25;13.20;99.90
7572;DHT22;3827;49.928;8.548;2023-08-07T04:38:51;13.20;99.90
7572;DHT22;3827;49.928;8.548;2023-08-07T04:41:21;13.20;99.90
7572;DHT22;3827;49.928;8.548;2023-08-07T04:43:47;13.70;99.90
7572;DHT22;3827;49.928;8.548;2023-08-07T04:46:16;13.20;99.90
7572;DHT22;3827;49.928;8.548;2023-08-07T04:48:42;13.20;99.90
7572;DHT22;3827;49.928;8.548;2023-08-07T04:51:09;13.30;99.90
7572;DHT22;3827;49.928;8.548;2023-08-07T04:53:36;13.20;99.90
7572;DHT22;3827;49.928;8.548;2023-08-07T04:56:03;13.20;99.90
7572;DHT22;3827;49.928;8.548;2023-08-07T04:58:30;13.30;99.90
7572;DHT22;3827;49.928;8.548;2023-08-07T05:00:56;13.20;99.90
7572;DHT22;3827;49.928;8.548;2023-08-07T05:03:25;13.20;99.90
7572;DHT22;3827;49.928;8.548;2023-08-07T05:05:58;13.20;99.90
7572;DHT22;3827;49.928;8.548;2023-08-07T05:08:25;13.40;99.90
7572;DHT22;3827;49.928;8.548;2023-08-07T05:10:51;13.70;99.90
7572;DHT22;3827;49.928;8.548;2023-08-07T05:13:18;14.10;99.90
7572;DHT22;3827;49.928;8.548;2023-08-07T05:15:47;13.30;99.90
7572;DHT22;3827;49.928;8.548;2023-08-07T05:18:14;13.30;99.90
7572;DHT22;3827;49.928;8.548;2023-08-07T05:20:42;13.60;99.90
7572;DHT22;3827;49.928;8.548;2023-08-07T05:23:09;13.40;99.90
7572;DHT22;3827;49.928;8.548;2023-08-07T05:25:36;13.40;99.90
7572;DHT22;3827;49.928;8.548;2023-08-07T05:28:03;13.50;99.90
7572;DHT22;3827;49.928;8.548;2023-08-07T05:30:30;13.50;99.90
7572;DHT22;3827;49.928;8.548;2023-08-07T05:32:57;13.50;99.90
7572;DHT22;3827;49.928;8.548;2023-08-07T05:35:24;13.50;99.90
7572;DHT22;3827;49.928;8.548;2023-08-07T05:37:52;13.60;99.90
7572;DHT22;3827;49.928;8.548;2023-08-07T05:40:19;13.60;99.90
7572;DHT22;3827;49.928;8.548;2023-08-07T05:42:46;13.60;99.90
7572;DHT22;3827;49.928;8.548;2023-08-07T05:45:12;13.60;99.90
7572;DHT22;3827;49.928;8.548;2023-08-07T05:47:39;13.50;99.90
7572;DHT22;3827;49.928;8.548;2023-08-07T05:50:06;13.60;99.90
7572;DHT22;3827;49.928;8.548;2023-08-07T05:52:33;13.50;99.90
7572;DHT22;3827;49.928;8.548;2023-08-07T05:55:01;13.50;99.90
7572;DHT22;3827;49.928;8.548;2023-08-07T05:57:28;13.60;99.90
7572;DHT22;3827;49.928;8.548;2023-08-07T05:59:55;13.70;99.90
7572;DHT22;3827;49.928;8.548;2023-08-07T06:02:22;14.30;99.90
7572;DHT22;3827;49.928;8.548;2023-08-07T06:04:48;13.60;99.90
7572;DHT22;3827;49.928;8.548;2023-08-07T06:07:15;13.50;99.90
7572;DHT22;3827;49.928;8.548;2023-08-07T06:09:42;13.50;99.90
7572;DHT22;3827;49.928;8.548;2023-08-07T06:12:10;13.50;99.90
7572;DHT22;3827;49.928;8.548;2023-08-07T06:14:37;13.50;99.90
7572;DHT22;3827;49.928;8.548;2023-08-07T06:17:04;13.50;99.90
7572;DHT22;3827;49.928;8.548;2023-08-07T06:19:31;13.60;99.90
7572;DHT22;3827;49.928;8.548;2023-08-07T06:21:58;13.50;99.90
7572;DHT22;3827;49.928;8.548;2023-08-07T06:24:25;13.50;99.90
7572;DHT22;3827;49.928;8.548;2023-08-07T06:26:51;14.00;99.90
7572;DHT22;3827;49.928;8.548;2023-08-07T06:29:20;13.40;99.90
7572;DHT22;3827;49.928;8.548;2023-08-07T06:31:46;13.30;99.90
7572;DHT22;3827;49.928;8.548;2023-08-07T06:34:13;13.10;99.90
7572;DHT22;3827;49.928;8.548;2023-08-07T06:36:40;13.10;99.90
7572;DHT22;3827;49.928;8.548;2023-08-07T06:39:06;12.90;99.90
7572;DHT22;3827;49.928;8.548;2023-08-07T06:41:33;12.90;99.90
7572;DHT22;3827;49.928;8.548;2023-08-07T06:44:00;12.80;99.90
7572;DHT22;3827;49.928;8.548;2023-08-07T06:46:28;12.90;99.90
7572;DHT22;3827;49.928;8.548;2023-08-07T06:48:55;12.70;99.90
7572;DHT22;3827;49.928;8.548;2023-08-07T06:51:22;12.60;99.90
7572;DHT22;3827;49.928;8.548;2023-08-07T06:53:48;12.60;99.90
7572;DHT22;3827;49.928;8.548;2023-08-07T06:56:15;12.60;99.90
7572;DHT22;3827;49.928;8.548;2023-08-07T06:58:42;12.60;99.90
7572;DHT22;3827;49.928;8.548;2023-08-07T07:01:09;12.60;99.90
7572;DHT22;3827;49.928;8.548;2023-08-07T07:03:37;12.60;99.90
7572;DHT22;3827;49.928;8.548;2023-08-07T07:06:04;13.00;99.90
7572;DHT22;3827;49.928;8.548;2023-08-07T07:08:30;12.60;99.90
7572;DHT22;3827;49.928;8.548;2023-08-07T07:10:57;12.60;99.90
7572;DHT22;3827;49.928;8.548;2023-08-07T07:13:24;12.70;99.90
7572;DHT22;3827;49.928;8.548;2023-08-07T07:15:54;12.80;99.90
7572;DHT22;3827;49.928;8.548;2023-08-07T07:18:21;12.80;99.90
7572;DHT22;3827;49.928;8.548;2023-08-07T07:20:56;12.90;99.90
7572;DHT22;3827;49.928;8.548;2023-08-07T07:23:23;12.90;99.90
7572;DHT22;3827;49.928;8.548;2023-08-07T07:25:49;13.00;99.90
7572;DHT22;3827;49.928;8.548;2023-08-07T07:28:16;13.10;99.90
7572;DHT22;3827;49.928;8.548;2023-08-07T07:30:43;13.20;99.90
7572;DHT22;3827;49.928;8.548;2023-08-07T07:33:10;13.20;99.90
7572;DHT22;3827;49.928;8.548;2023-08-07T07:35:39;13.30;99.90
7572;DHT22;3827;49.928;8.548;2023-08-07T07:38:07;13.30;99.90
7572;DHT22;3827;49.928;8.548;2023-08-07T07:40:36;13.30;99.90
7572;DHT22;3827;49.928;8.548;2023-08-07T07:43:07;13.80;99.90
7572;DHT22;3827;49.928;8.548;2023-08-07T07:45:36;13.40;99.90
7572;DHT22;3827;49.928;8.548;2023-08-07T07:48:09;13.50;99.90
7572;DHT22;3827;49.928;8.548;2023-08-07T07:50:40;13.50;99.90
7572;DHT22;3827;49.928;8.548;2023-08-07T07:53:08;13.50;99.90
7572;DHT22;3827;49.928;8.548;2023-08-07T07:55:35;13.50;99.90
7572;DHT22;3827;49.928;8.548;2023-08-07T07:58:03;13.50;99.90
7572;DHT22;3827;49.928;8.548;2023-08-07T08:00:30;13.60;99.90
7572;DHT22;3827;49.928;8.548;2023-08-07T08:02:56;13.60;99.90
7572;DHT22;3827;49.928;8.548;2023-08-07T08:05:24;13.60;99.90
7572;DHT22;3827;49.928;8.548;2023-08-07T08:07:51;13.50;99.90
7572;DHT22;3827;49.928;8.548;2023-08-07T08:10:19;13.60;99.90
7572;DHT22;3827;49.928;8.548;2023-08-07T08:12:46;13.70;99.90
7572;DHT22;3827;49.928;8.548;2023-08-07T08:15:13;14.20;99.90
7572;DHT22;3827;49.928;8.548;2023-08-07T08:17:40;13.80;99.90
7572;DHT22;3827;49.928;8.548;2023-08-07T08:20:07;13.80;99.90
7572;DHT22;3827;49.928;8.548;2023-08-07T08:22:34;13.90;99.90
7572;DHT22;3827;49.928;8.548;2023-08-07T08:25:01;14.00;99.90
7572;DHT22;3827;49.928;8.548;2023-08-07T08:27:31;14.10;99.90
7572;DHT22;3827;49.928;8.548;2023-08-07T08:29:58;14.10;99.90
7572;DHT22;3827;49.928;8.548;2023-08-07T08:32:24;14.10;99.90
7572;DHT22;3827;49.928;8.548;2023-08-07T08:34:51;14.30;99.90
7572;DHT22;3827;49.928;8.548;2023-08-07T08:37:18;14.30;99.90
7572;DHT22;3827;49.928;8.548;2023-08-07T08:39:45;14.30;99.90
7572;DHT22;3827;49.928;8.548;2023-08-07T08:42:12;14.30;99.90
7572;DHT22;3827;49.928;8.548;2023-08-07T08:44:40;14.30;99.90
7572;DHT22;3827;49.928;8.548;2023-08-07T08:47:09;14.20;99.90
7572;DHT22;3827;49.928;8.548;2023-08-07T08:49:43;14.10;99.90
7572;DHT22;3827;49.928;8.548;2023-08-07T08:52:12;14.50;99.90
7572;DHT22;3827;49.928;8.548;2023-08-07T08:54:39;14.70;99.90
7572;DHT22;3827;49.928;8.548;2023-08-07T08:57:07;14.00;99.90
7572;DHT22;3827;49.928;8.548;2023-08-07T08:59:34;14.10;99.90
7572;DHT22;3827;49.928;8.548;2023-08-07T09:02:02;14.10;99.90
7572;DHT22;3827;49.928;8.548;2023-08-07T09:04:29;14.30;99.90
7572;DHT22;3827;49.928;8.548;2023-08-07T09:06:56;14.40;99.90
7572;DHT22;3827;49.928;8.548;2023-08-07T09:09:23;14.50;99.90
7572;DHT22;3827;49.928;8.548;2023-08-07T09:11:51;14.70;99.90
7572;DHT22;3827;49.928;8.548;2023-08-07T09:14:25;15.00;99.90
7572;DHT22;3827;49.928;8.548;2023-08-07T09:16:54;14.90;99.90
7572;DHT22;3827;49.928;8.548;2023-08-07T09:19:22;14.90;99.90
7572;DHT22;3827;49.928;8.548;2023-08-07T09:21:49;14.90;99.90
7572;DHT22;3827;49.928;8.548;2023-08-07T09:24:15;15.00;99.90
7572;DHT22;3827;49.928;8.548;2023-08-07T09:26:44;14.90;99.90
7572;DHT22;3827;49.928;8.548;2023-08-07T09:29:11;14.90;99.90
7572;DHT22;3827;49.928;8.548;2023-08-07T09:31:42;14.90;99.90
7572;DHT22;3827;49.928;8.548;2023-08-07T09:34:10;14.80;99.90
7572;DHT22;3827;49.928;8.548;2023-08-07T09:36:41;14.70;99.90
7572;DHT22;3827;49.928;8.548;2023-08-07T09:39:08;14.60;99.90
7572;DHT22;3827;49.928;8.548;2023-08-07T09:41:36;14.60;99.90
7572;DHT22;3827;49.928;8.548;2023-08-07T09:44:07;14.40;99.90
7572;DHT22;3827;49.928;8.548;2023-08-07T09:46:41;14.30;99.90
7572;DHT22;3827;49.928;8.548;2023-08-07T09:49:08;14.20;99.90
7572;DHT22;3827;49.928;8.548;2023-08-07T09:51:43;14.10;99.90
7572;DHT22;3827;49.928;8.548;2023-08-07T09:54:10;14.00;99.90
7572;DHT22;3827;49.928;8.548;2023-08-07T09:56:37;13.80;99.90
7572;DHT22;3827;49.928;8.548;2023-08-07T09:59:04;13.70;99.90
7572;DHT22;3827;49.928;8.548;2023-08-07T10:01:32;13.70;99.90
7572;DHT22;3827;49.928;8.548;2023-08-07T10:03:59;13.70;99.90
7572;DHT22;3827;49.928;8.548;2023-08-07T10:06:27;13.70;99.90
7572;DHT22;3827;49.928;8.548;2023-08-07T10:08:56;13.70;99.90
7572;DHT22;3827;49.928;8.548;2023-08-07T10:11:24;13.70;99.90
7572;DHT22;3827;49.928;8.548;2023-08-07T10:13:51;13.60;99.90
7572;DHT22;3827;49.928;8.548;2023-08-07T10:16:19;14.20;99.90
7572;DHT22;3827;49.928;8.548;2023-08-07T10:18:46;13.70;99.90
7572;DHT22;3827;49.928;8.548;2023-08-07T10:21:13;13.70;99.90
7572;DHT22;3827;49.928;8.548;2023-08-07T10:23:40;13.60;99.90
7572;DHT22;3827;49.928;8.548;2023-08-07T10:26:10;13.70;99.90
7572;DHT22;3827;49.928;8.548;2023-08-07T10:28:39;13.70;99.90
7572;DHT22;3827;49.928;8.548;2023-08-07T10:31:07;14.10;99.90
7572;DHT22;3827;49.928;8.548;2023-08-07T10:33:36;14.00;99.90
7572;DHT22;3827;49.928;8.548;2023-08-07T10:36:08;14.10;99.90
7572;DHT22;3827;49.928;8.548;2023-08-07T10:38:35;14.20;99.90
7572;DHT22;3827;49.928;8.548;2023-08-07T10:41:06;14.20;99.90
7572;DHT22;3827;49.928;8.548;2023-08-07T10:43:38;14.40;99.90
7572;DHT22;3827;49.928;8.548;2023-08-07T10:46:06;14.60;99.90
7572;DHT22;3827;49.928;8.548;2023-08-07T10:48:39;14.60;99.90
7572;DHT22;3827;49.928;8.548;2023-08-07T10:51:06;14.80;99.90
7572;DHT22;3827;49.928;8.548;2023-08-07T10:53:34;14.90;99.90
7572;DHT22;3827;49.928;8.548;2023-08-07T10:56:02;15.20;99.90
7572;DHT22;3827;49.928;8.548;2023-08-07T10:58:30;15.30;99.90
7572;DHT22;3827;49.928;8.548;2023-08-07T11:01:18;15.60;99.90
7572;DHT22;3827;49.928;8.548;2023-08-07T11:03:46;15.60;99.90
7572;DHT22;3827;49.928;8.548;2023-08-07T11:06:15;15.70;99.90
7572;DHT22;3827;49.928;8.548;2023-08-07T11:08:42;15.90;99.90
7572;DHT22;3827;49.928;8.548;2023-08-07T11:11:09;15.70;99.90
7572;DHT22;3827;49.928;8.548;2023-08-07T11:13:36;15.80;99.90
7572;DHT22;3827;49.928;8.548;2023-08-07T11:16:03;15.70;99.90
7572;DHT22;3827;49.928;8.548;2023-08-07T11:18:32;15.70;99.90
7572;DHT22;3827;49.928;8.548;2023-08-07T11:21:01;15.70;99.90
7572;DHT22;3827;49.928;8.548;2023-08-07T11:23:28;15.50;99.90
7572;DHT22;3827;49.928;8.548;2023-08-07T11:25:55;15.60;99.90
7572;DHT22;3827;49.928;8.548;2023-08-07T11:28:23;15.60;99.90
7572;DHT22;3827;49.928;8.548;2023-08-07T11:30:50;17.10;99.90
7572;DHT22;3827;49.928;8.548;2023-08-07T11:33:18;15.80;99.90
7572;DHT22;3827;49.928;8.548;2023-08-07T11:35:47;16.00;99.90
7572;DHT22;3827;49.928;8.548;2023-08-07T11:38:29;16.00;99.90
7572;DHT22;3827;49.928;8.548;2023-08-07T11:40:57;16.00;99.90
7572;DHT22;3827;49.928;8.548;2023-08-07T11:43:26;16.10;99.90
7572;DHT22;3827;49.928;8.548;2023-08-07T11:45:53;16.20;99.90
7572;DHT22;3827;49.928;8.548;2023-08-07T11:48:22;16.20;99.90
7572;DHT22;3827;49.928;8.548;2023-08-07T11:50:51;16.20;99.90
7572;DHT22;3827;49.928;8.548;2023-08-07T11:53:19;16.30;99.90
7572;DHT22;3827;49.928;8.548;2023-08-07T11:55:47;16.20;99.90
7572;DHT22;3827;49.928;8.548;2023-08-07T11:58:16;16.00;99.90
7572;DHT22;3827;49.928;8.548;2023-08-07T12:00:43;15.90;99.90
7572;DHT22;3827;49.928;8.548;2023-08-07T12:03:27;15.90;99.90
7572;DHT22;3827;49.928;8.548;2023-08-07T12:05:57;15.90;99.90
7572;DHT22;3827;49.928;8.548;2023-08-07T12:08:24;15.90;99.90
7572;DHT22;3827;49.928;8.548;2023-08-07T12:10:51;16.00;99.90
7572;DHT22;3827;49.928;8.548;2023-08-07T12:13:23;16.10;99.90
7572;DHT22;3827;49.928;8.548;2023-08-07T12:15:51;16.10;99.90
7572;DHT22;3827;49.928;8.548;2023-08-07T12:18:19;16.10;99.90
7572;DHT22;3827;49.928;8.548;2023-08-07T12:20:45;16.10;99.90
7572;DHT22;3827;49.928;8.548;2023-08-07T12:23:16;16.20;99.90
7572;DHT22;3827;49.928;8.548;2023-08-07T12:25:43;16.20;99.90
7572;DHT22;3827;49.928;8.548;2023-08-07T12:28:10;16.30;99.90
7572;DHT22;3827;49.928;8.548;2023-08-07T12:30:38;16.50;99.90
7572;DHT22;3827;49.928;8.548;2023-08-07T12:33:05;16.60;99.90
7572;DHT22;3827;49.928;8.548;2023-08-07T12:35:33;16.80;99.90
7572;DHT22;3827;49.928;8.548;2023-08-07T12:38:00;17.10;99.90
7572;DHT22;3827;49.928;8.548;2023-08-07T12:40:30;17.10;99.90
7572;DHT22;3827;49.928;8.548;2023-08-07T12:42:57;17.10;99.90
7572;DHT22;3827;49.928;8.548;2023-08-07T12:45:24;17.10;99.90
7572;DHT22;3827;49.928;8.548;2023-08-07T12:47:51;17.30;99.90
7572;DHT22;3827;49.928;8.548;2023-08-07T12:50:18;17.30;99.90
7572;DHT22;3827;49.928;8.548;2023-08-07T12:52:45;17.40;99.90
7572;DHT22;3827;49.928;8.548;2023-08-07T12:55:12;17.30;99.90
7572;DHT22;3827;49.928;8.548;2023-08-07T12:57:42;18.70;99.90
7572;DHT22;3827;49.928;8.548;2023-08-07T13:00:09;17.20;99.90
7572;DHT22;3827;49.928;8.548;2023-08-07T13:02:38;17.00;99.90
7572;DHT22;3827;49.928;8.548;2023-08-07T13:05:05;16.90;99.90
7572;DHT22;3827;49.928;8.548;2023-08-07T13:07:32;17.00;99.90
7572;DHT22;3827;49.928;8.548;2023-08-07T13:09:59;17.20;99.90
7572;DHT22;3827;49.928;8.548;2023-08-07T13:12:25;17.50;99.90
7572;DHT22;3827;49.928;8.548;2023-08-07T13:14:54;17.60;99.90
7572;DHT22;3827;49.928;8.548;2023-08-07T13:17:21;17.90;99.90
7572;DHT22;3827;49.928;8.548;2023-08-07T13:19:48;18.10;99.90
7572;DHT22;3827;49.928;8.548;2023-08-07T13:22:15;18.20;99.90
7572;DHT22;3827;49.928;8.548;2023-08-07T13:24:42;18.10;99.90
7572;DHT22;3827;49.928;8.548;2023-08-07T13:27:08;18.40;99.90
7572;DHT22;3827;49.928;8.548;2023-08-07T13:29:35;18.60;99.90
7572;DHT22;3827;49.928;8.548;2023-08-07T13:32:04;18.80;99.90
7572;DHT22;3827;49.928;8.548;2023-08-07T13:34:34;19.30;99.90
7572;DHT22;3827;49.928;8.548;2023-08-07T13:37:02;19.60;99.90
7572;DHT22;3827;49.928;8.548;2023-08-07T13:39:28;18.90;99.90
7572;DHT22;3827;49.928;8.548;2023-08-07T13:41:55;18.70;99.90
7572;DHT22;3827;49.928;8.548;2023-08-07T13:44:22;18.70;99.90
7572;DHT22;3827;49.928;8.548;2023-08-07T13:46:49;18.40;99.90
7572;DHT22;3827;49.928;8.548;2023-08-07T13:49:18;18.30;99.90
7572;DHT22;3827;49.928;8.548;2023-08-07T13:51:46;18.90;99.90
7572;DHT22;3827;49.928;8.548;2023-08-07T13:54:12;18.70;99.90
7572;DHT22;3827;49.928;8.548;2023-08-07T13:56:39;18.70;99.90
7572;DHT22;3827;49.928;8.548;2023-08-07T13:59:06;18.90;99.90
7572;DHT22;3827;49.928;8.548;2023-08-07T14:01:33;18.90;99.90
7572;DHT22;3827;49.928;8.548;2023-08-07T14:04:00;18.80;99.90
7572;DHT22;3827;49.928;8.548;2023-08-07T14:06:29;19.00;99.90
7572;DHT22;3827;49.928;8.548;2023-08-07T14:08:56;19.60;99.90
7572;DHT22;3827;49.928;8.548;2023-08-07T14:11:22;19.70;99.90
7572;DHT22;3827;49.928;8.548;2023-08-07T14:13:53;20.30;99.90
7572;DHT22;3827;49.928;8.548;2023-08-07T14:16:19;20.30;99.90
7572;DHT22;3827;49.928;8.548;2023-08-07T14:18:47;20.40;99.90
7572;DHT22;3827;49.928;8.548;2023-08-07T14:21:14;20.80;99.90
7572;DHT22;3827;49.928;8.548;2023-08-07T14:23:42;21.00;99.90
7572;DHT22;3827;49.928;8.548;2023-08-07T14:26:11;21.00;99.90
7572;DHT22;3827;49.928;8.548;2023-08-07T14:28:38;21.50;99.90
7572;DHT22;3827;49.928;8.548;2023-08-07T14:31:09;21.30;99.90
7572;DHT22;3827;49.928;8.548;2023-08-07T14:33:39;21.30;99.90
7572;DHT22;3827;49.928;8.548;2023-08-07T14:36:07;21.30;99.90
7572;DHT22;3827;49.928;8.548;2023-08-07T14:38:33;21.50;99.90
7572;DHT22;3827;49.928;8.548;2023-08-07T14:41:01;21.60;99.90
7572;DHT22;3827;49.928;8.548;2023-08-07T14:43:29;21.80;99.90
7572;DHT22;3827;49.928;8.548;2023-08-07T14:45:56;21.80;99.90
7572;DHT22;3827;49.928;8.548;2023-08-07T14:48:23;21.40;99.90
7572;DHT22;3827;49.928;8.548;2023-08-07T14:50:50;20.50;99.90
7572;DHT22;3827;49.928;8.548;2023-08-07T14:53:16;20.50;99.90
7572;DHT22;3827;49.928;8.548;2023-08-07T14:55:43;20.80;99.90
7572;DHT22;3827;49.928;8.548;2023-08-07T14:58:12;21.30;99.90
7572;DHT22;3827;49.928;8.548;2023-08-07T15:00:39;21.20;99.90
7572;DHT22;3827;49.928;8.548;2023-08-07T15:03:05;21.20;99.90
7572;DHT22;3827;49.928;8.548;2023-08-07T15:05:32;20.70;99.90
7572;DHT22;3827;49.928;8.548;2023-08-07T15:08:00;20.70;99.90
7572;DHT22;3827;49.928;8.548;2023-08-07T15:10:27;20.40;99.90
7572;DHT22;3827;49.928;8.548;2023-08-07T15:12:54;20.30;99.90
7572;DHT22;3827;49.928;8.548;2023-08-07T15:15:22;20.40;99.90
7572;DHT22;3827;49.928;8.548;2023-08-07T15:17:49;20.30;99.90
7572;DHT22;3827;49.928;8.548;2023-08-07T15:20:16;20.50;99.90
7572;DHT22;3827;49.928;8.548;2023-08-07T15:22:45;20.80;99.90
7572;DHT22;3827;49.928;8.548;2023-08-07T15:25:12;20.60;99.90
7572;DHT22;3827;49.928;8.548;2023-08-07T15:27:39;20.30;99.90
7572;DHT22;3827;49.928;8.548;2023-08-07T15:30:07;20.10;99.90
7572;DHT22;3827;49.928;8.548;2023-08-07T15:32:37;19.80;99.90
7572;DHT22;3827;49.928;8.548;2023-08-07T15:35:04;19.80;99.90
7572;DHT22;3827;49.928;8.548;2023-08-07T15:37:31;19.90;99.90
7572;DHT22;3827;49.928;8.548;2023-08-07T15:39:58;20.20;99.90
7572;DHT22;3827;49.928;8.548;2023-08-07T15:42:24;19.60;99.90
7572;DHT22;3827;49.928;8.548;2023-08-07T15:44:51;20.40;99.90
7572;DHT22;3827;49.928;8.548;2023-08-07T15:47:18;20.80;99.90
7572;DHT22;3827;49.928;8.548;2023-08-07T15:49:46;21.00;99.90
7572;DHT22;3827;49.928;8.548;2023-08-07T15:52:14;20.90;99.90
7572;DHT22;3827;49.928;8.548;2023-08-07T15:54:41;20.90;99.90
7572;DHT22;3827;49.928;8.548;2023-08-07T15:57:09;21.10;99.90
7572;DHT22;3827;49.928;8.548;2023-08-07T15:59:35;21.50;99.90
7572;DHT22;3827;49.928;8.548;2023-08-07T16:02:04;21.90;99.90
7572;DHT22;3827;49.928;8.548;2023-08-07T16:04:32;21.20;99.90